KRIL

Rifle Garfield County Airport

Rifle, Colorado, USA
KRIL 221720Z 2218/2318 VRB05KT P6SM SKC FM222300 30007KT P6SM SCT110 BKN250 FM230200 34007KT P6SM SCT100 BKN200
Issued Valid From Valid To
Jul-22 @ 17:20 UTC
(3 hours ago)
Jul-22 @ 18:00 UTC
(2 hours ago)
Jul-23 @ 18:00 UTC
(in 22 hours)
Jul-22 @ 18:00 to Jul-22 @ 23:00
KRIL 221720Z 2218/2318 VRB05KT P6SM SKC
Wind Visibility Clouds
Variable at 5 knots Greater than 6 miles
  • Clear skies
From Jul-22 @ 23:00 to Jul-23 @ 02:00
FM222300 30007KT P6SM SCT110 BKN250
Wind Visibility Clouds
300° at 7 knots Greater than 6 miles
  • Scattered at 11,000' AGL
  • Broken at 25,000' AGL
From Jul-23 @ 02:00 to Jul-23 @ 18:00
FM230200 34007KT P6SM SCT100 BKN200
Wind Visibility Clouds
340° at 7 knots Greater than 6 miles
  • Scattered at 10,000' AGL
  • Broken at 20,000' AGL
KRIL 221720Z 2218/2318 VRB05KT P6SM SKC FM222300 30007KT P6SM SCT110 BKN250 FM230200 34007KT P6SM SCT100 BKN200
Issued Jul-22 @ 17:20 UTC
(3 hours ago)
Valid From Jul-22 @ 18:00 UTC
(2 hours ago)
Valid To Jul-23 @ 18:00 UTC
(in 22 hours)
Jul-22 @ 18:00 - Jul-22 @ 23:00
Wind Visibility
Variable at 5 knots Greater than 6 miles
Clouds
  • Clear skies
From Jul-22 @ 23:00 - Jul-23 @ 02:00
Wind Visibility
300° at 7 knots Greater than 6 miles
Clouds
  • Scattered at 11,000' AGL
  • Broken at 25,000' AGL
From Jul-23 @ 02:00 - Jul-23 @ 18:00
Wind Visibility
340° at 7 knots Greater than 6 miles
Clouds
  • Scattered at 10,000' AGL
  • Broken at 20,000' AGL